Time,TemperatureF,DewpointF,PressureIn,WindDirection,WindDirectionDegrees,WindSpeedMPH,WindSpeedGustMPH,Humidity,HourlyPrecipIn,Conditions,Clouds,dailyrainin,SolarRadiationWatts/m^2,SoftwareType,DateUTC
2013-12-05 00:02:00,14.0,11.0,-100.00,NW,312,12.0,24.0,87,0.00,,,0.00,14.000000,,2013-12-05 00:02:00,
2013-12-05 00:11:00,13.0,10.0,-100.00,NW,314,14.0,23.0,86,0.00,,,0.00,0.000000,,2013-12-05 00:11:00,
2013-12-05 00:42:00,13.0,10.0,-100.00,NW,314,14.0,23.0,86,0.00,,,0.00,0.000000,,2013-12-05 00:42:00,
2013-12-05 00:52:00,13.0,10.0,-100.00,NW,314,14.0,23.0,86,0.00,,,0.00,0.000000,,2013-12-05 00:52:00,
2013-12-05 01:01:00,13.0,10.0,-100.00,NW,314,14.0,23.0,86,0.00,,,0.00,0.000000,,2013-12-05 01:01:00,
2013-12-05 01:11:00,13.0,10.0,-100.00,NW,316,12.0,25.0,87,0.00,,,0.00,0.000000,,2013-12-05 01:11:00,
2013-12-05 01:42:00,13.0,10.0,-100.00,NW,316,12.0,25.0,87,0.00,,,0.00,0.000000,,2013-12-05 01:42:00,
2013-12-05 01:52:00,13.0,10.0,-100.00,NW,316,12.0,25.0,87,0.00,,,0.00,0.000000,,2013-12-05 01:52:00,
2013-12-05 02:02:00,13.0,10.0,-100.00,NW,316,12.0,25.0,87,0.00,,,0.00,0.000000,,2013-12-05 02:02:00,
2013-12-05 02:11:00,12.0,8.0,-100.00,NW,313,14.0,28.0,84,0.00,,,0.00,0.000000,,2013-12-05 02:11:00,
2013-12-05 02:52:00,12.0,8.0,-100.00,NW,313,14.0,28.0,84,0.00,,,0.00,0.000000,,2013-12-05 02:52:00,
2013-12-05 03:02:00,12.0,8.0,-100.00,NW,313,14.0,28.0,84,0.00,,,0.00,0.000000,,2013-12-05 03:02:00,
2013-12-05 03:11:00,11.0,7.0,-100.00,NW,321,14.0,24.0,84,0.00,,,0.00,0.000000,,2013-12-05 03:11:00,
2013-12-05 03:43:00,11.0,7.0,-100.00,NW,321,14.0,24.0,84,0.00,,,0.00,0.000000,,2013-12-05 03:43:00,
2013-12-05 03:54:00,11.0,7.0,-100.00,NW,321,14.0,24.0,84,0.00,,,0.00,0.000000,,2013-12-05 03:54:00,
2013-12-05 04:04:00,11.0,7.0,-100.00,NW,321,14.0,24.0,84,0.00,,,0.00,0.000000,,2013-12-05 04:04:00,
2013-12-05 04:11:00,12.0,8.0,-100.00,NW,314,13.0,24.0,82,0.00,,,0.00,0.000000,,2013-12-05 04:11:00,
2013-12-05 04:43:00,12.0,8.0,-100.00,NW,314,13.0,24.0,82,0.00,,,0.00,0.000000,,2013-12-05 04:43:00,
2013-12-05 04:53:00,12.0,8.0,-100.00,NW,314,13.0,24.0,82,0.00,,,0.00,0.000000,,2013-12-05 04:53:00,
2013-12-05 05:02:00,12.0,8.0,-100.00,NW,314,13.0,24.0,82,0.00,,,0.00,0.000000,,2013-12-05 05:02:00,
2013-12-05 05:11:00,12.0,7.0,-100.00,NW,315,14.0,27.0,81,0.00,,,0.00,0.000000,,2013-12-05 05:11:00,
2013-12-05 05:43:00,12.0,7.0,-100.00,NW,315,14.0,27.0,81,0.00,,,0.00,0.000000,,2013-12-05 05:43:00,
2013-12-05 05:53:00,12.0,7.0,-100.00,NW,315,14.0,27.0,81,0.00,,,0.00,0.000000,,2013-12-05 05:53:00,
2013-12-05 06:02:00,12.0,7.0,-100.00,NW,315,14.0,27.0,81,0.00,,,0.00,0.000000,,2013-12-05 06:02:00,
2013-12-05 06:11:00,10.0,5.0,-100.00,NW,311,15.0,24.0,81,0.00,,,0.00,0.000000,,2013-12-05 06:11:00,
2013-12-05 06:43:00,10.0,5.0,-100.00,NW,311,15.0,24.0,81,0.00,,,0.00,0.000000,,2013-12-05 06:43:00,
2013-12-05 06:52:00,10.0,5.0,-100.00,NW,311,15.0,24.0,81,0.00,,,0.00,0.000000,,2013-12-05 06:52:00,
2013-12-05 07:02:00,10.0,5.0,-100.00,NW,311,15.0,24.0,81,0.00,,,0.00,0.000000,,2013-12-05 07:02:00,
2013-12-05 07:11:00,8.0,3.0,-100.00,NW,309,14.0,25.0,80,0.00,,,0.00,0.000000,,2013-12-05 07:11:00,
2013-12-05 07:42:00,8.0,3.0,-100.00,NW,309,14.0,25.0,80,0.00,,,0.00,0.000000,,2013-12-05 07:42:00,
2013-12-05 07:52:00,8.0,3.0,-100.00,NW,309,14.0,25.0,80,0.00,,,0.00,0.000000,,2013-12-05 07:52:00,
2013-12-05 08:02:00,8.0,3.0,-100.00,NW,309,14.0,25.0,80,0.00,,,0.00,0.000000,,2013-12-05 08:02:00,
2013-12-05 08:11:00,7.0,2.0,-100.00,NW,307,11.0,21.0,81,0.00,,,0.00,0.000000,,2013-12-05 08:11:00,
2013-12-05 08:42:00,7.0,2.0,-100.00,NW,307,11.0,21.0,81,0.00,,,0.00,0.000000,,2013-12-05 08:42:00,
2013-12-05 08:53:00,7.0,2.0,-100.00,NW,307,11.0,21.0,81,0.00,,,0.00,0.000000,,2013-12-05 08:53:00,
2013-12-05 09:02:00,7.0,2.0,-100.00,NW,307,11.0,21.0,81,0.00,,,0.00,0.000000,,2013-12-05 09:02:00,
2013-12-05 09:11:00,6.0,2.0,-100.00,NW,308,10.0,20.0,84,0.00,,,0.00,0.000000,,2013-12-05 09:11:00,
2013-12-05 09:43:00,6.0,2.0,-100.00,NW,308,10.0,20.0,84,0.00,,,0.00,0.000000,,2013-12-05 09:43:00,
2013-12-05 09:54:00,6.0,2.0,-100.00,NW,308,10.0,20.0,84,0.00,,,0.00,0.000000,,2013-12-05 09:54:00,
2013-12-05 10:03:00,6.0,2.0,-100.00,NW,308,10.0,20.0,84,0.00,,,0.00,0.000000,,2013-12-05 10:03:00,
2013-12-05 10:11:00,5.0,2.0,-100.00,NW,311,11.0,20.0,85,0.00,,,0.00,0.000000,,2013-12-05 10:11:00,
2013-12-05 10:43:00,5.0,2.0,-100.00,NW,311,11.0,20.0,85,0.00,,,0.00,0.000000,,2013-12-05 10:43:00,
2013-12-05 10:53:00,5.0,2.0,-100.00,NW,311,11.0,20.0,85,0.00,,,0.00,0.000000,,2013-12-05 10:53:00,
2013-12-05 11:02:00,5.0,2.0,-100.00,NW,311,11.0,20.0,85,0.00,,,0.00,0.000000,,2013-12-05 11:02:00,
2013-12-05 11:11:00,4.0,1.0,-100.00,WNW,303,7.0,17.0,85,0.00,,,0.00,0.000000,,2013-12-05 11:11:00,
2013-12-05 11:42:00,4.0,1.0,-100.00,WNW,303,7.0,17.0,85,0.00,,,0.00,0.000000,,2013-12-05 11:42:00,
2013-12-05 11:53:00,4.0,1.0,-100.00,WNW,303,7.0,17.0,85,0.00,,,0.00,0.000000,,2013-12-05 11:53:00,
2013-12-05 12:02:00,4.0,1.0,-100.00,WNW,303,7.0,17.0,85,0.00,,,0.00,0.000000,,2013-12-05 12:02:00,
2013-12-05 12:11:00,3.0,0.0,-100.00,NW,304,6.0,15.0,85,0.00,,,0.00,0.000000,,2013-12-05 12:11:00,
2013-12-05 12:42:00,3.0,0.0,-100.00,NW,304,6.0,15.0,85,0.00,,,0.00,0.000000,,2013-12-05 12:42:00,
2013-12-05 12:52:00,3.0,0.0,-100.00,NW,304,6.0,15.0,85,0.00,,,0.00,0.000000,,2013-12-05 12:52:00,
2013-12-05 13:02:00,3.0,0.0,-100.00,NW,304,6.0,15.0,85,0.00,,,0.00,0.000000,,2013-12-05 13:02:00,
2013-12-05 13:11:00,3.0,-1.0,-100.00,NW,310,11.0,17.0,83,0.00,,,0.00,0.000000,,2013-12-05 13:11:00,
2013-12-05 13:42:00,3.0,-1.0,-100.00,NW,310,11.0,17.0,83,0.00,,,0.00,0.000000,,2013-12-05 13:42:00,
2013-12-05 13:52:00,3.0,-1.0,-100.00,NW,310,11.0,17.0,83,0.00,,,0.00,0.000000,,2013-12-05 13:52:00,
2013-12-05 14:02:00,3.0,-1.0,-100.00,NW,310,11.0,17.0,83,0.00,,,0.00,0.000000,,2013-12-05 14:02:00,
2013-12-05 14:11:00,2.0,-2.0,-100.00,NW,308,9.0,21.0,84,0.00,,,0.00,4.000000,,2013-12-05 14:11:00,
2013-12-05 14:42:00,2.0,-2.0,-100.00,NW,308,9.0,21.0,84,0.00,,,0.00,4.000000,,2013-12-05 14:42:00,
2013-12-05 14:52:00,2.0,-2.0,-100.00,NW,308,9.0,21.0,84,0.00,,,0.00,4.000000,,2013-12-05 14:52:00,
2013-12-05 15:02:00,2.0,-2.0,-100.00,NW,308,9.0,21.0,84,0.00,,,0.00,4.000000,,2013-12-05 15:02:00,
2013-12-05 15:11:00,5.0,0.0,-100.00,NW,316,12.0,19.0,78,0.00,,,0.00,55.000000,,2013-12-05 15:11:00,
2013-12-05 15:43:00,5.0,0.0,-100.00,NW,316,12.0,19.0,78,0.00,,,0.00,55.000000,,2013-12-05 15:43:00,
2013-12-05 15:54:00,5.0,0.0,-100.00,NW,316,12.0,19.0,78,0.00,,,0.00,55.000000,,2013-12-05 15:54:00,
2013-12-05 16:04:00,5.0,0.0,-100.00,NW,316,12.0,19.0,78,0.00,,,0.00,55.000000,,2013-12-05 16:04:00,
2013-12-05 16:11:00,7.0,0.0,-100.00,NW,315,14.0,24.0,73,0.00,,,0.00,204.000000,,2013-12-05 16:11:00,
2013-12-05 16:43:00,7.0,0.0,-100.00,NW,315,14.0,24.0,73,0.00,,,0.00,204.000000,,2013-12-05 16:43:00,
2013-12-05 16:53:00,7.0,0.0,-100.00,NW,315,14.0,24.0,73,0.00,,,0.00,204.000000,,2013-12-05 16:53:00,
2013-12-05 17:02:00,7.0,0.0,-100.00,NW,315,14.0,24.0,73,0.00,,,0.00,204.000000,,2013-12-05 17:02:00,
2013-12-05 17:11:00,9.0,1.0,-100.00,NW,308,13.0,23.0,70,0.00,,,0.00,266.000000,,2013-12-05 17:11:00,
2013-12-05 17:42:00,9.0,1.0,-100.00,NW,308,13.0,23.0,70,0.00,,,0.00,266.000000,,2013-12-05 17:42:00,
2013-12-05 17:52:00,9.0,1.0,-100.00,NW,308,13.0,23.0,70,0.00,,,0.00,266.000000,,2013-12-05 17:52:00,
2013-12-05 18:02:00,9.0,1.0,-100.00,NW,308,13.0,23.0,70,0.00,,,0.00,266.000000,,2013-12-05 18:02:00,
2013-12-05 18:11:00,9.0,1.0,-100.00,NW,306,14.0,24.0,68,0.00,,,0.00,381.000000,,2013-12-05 18:11:00,
2013-12-05 18:42:00,9.0,1.0,-100.00,NW,306,14.0,24.0,68,0.00,,,0.00,381.000000,,2013-12-05 18:42:00,
2013-12-05 18:52:00,9.0,1.0,-100.00,NW,306,14.0,24.0,68,0.00,,,0.00,381.000000,,2013-12-05 18:52:00,
2013-12-05 19:02:00,9.0,1.0,-100.00,NW,306,14.0,24.0,68,0.00,,,0.00,381.000000,,2013-12-05 19:02:00,
2013-12-05 19:11:00,10.0,1.0,-100.00,NW,311,16.0,23.0,65,0.00,,,-99.99,400.000000,,2013-12-05 19:11:00,
2013-12-05 19:42:00,10.0,1.0,-100.00,NW,311,16.0,23.0,65,0.00,,,-99.99,400.000000,,2013-12-05 19:42:00,
2013-12-05 19:52:00,10.0,1.0,-100.00,NW,311,16.0,23.0,65,0.00,,,-99.99,400.000000,,2013-12-05 19:52:00,
2013-12-05 20:02:00,10.0,1.0,-100.00,NW,311,16.0,23.0,65,0.00,,,-99.99,400.000000,,2013-12-05 20:02:00,
2013-12-05 20:11:00,11.0,2.0,-100.00,NW,315,14.0,22.0,67,0.00,,,0.00,367.000000,,2013-12-05 20:11:00,
2013-12-05 20:42:00,11.0,2.0,-100.00,NW,315,14.0,22.0,67,0.00,,,0.00,367.000000,,2013-12-05 20:42:00,
2013-12-05 20:52:00,11.0,2.0,-100.00,NW,315,14.0,22.0,67,0.00,,,0.00,367.000000,,2013-12-05 20:52:00,
2013-12-05 21:02:00,11.0,2.0,-100.00,NW,315,14.0,22.0,67,0.00,,,0.00,367.000000,,2013-12-05 21:02:00,
2013-12-05 21:11:00,10.0,2.0,-100.00,NW,320,12.0,21.0,68,0.00,,,0.00,285.000000,,2013-12-05 21:11:00,
2013-12-05 21:44:00,10.0,2.0,-100.00,NW,320,12.0,21.0,68,0.00,,,0.00,285.000000,,2013-12-05 21:44:00,
2013-12-05 21:53:00,10.0,2.0,-100.00,NW,320,12.0,21.0,68,0.00,,,0.00,285.000000,,2013-12-05 21:53:00,
2013-12-05 22:03:00,10.0,2.0,-100.00,NW,320,12.0,21.0,68,0.00,,,0.00,285.000000,,2013-12-05 22:03:00,
2013-12-05 22:11:00,9.0,0.0,-100.00,NW,311,10.0,18.0,67,0.00,,,0.00,171.000000,,2013-12-05 22:11:00,
2013-12-05 22:42:00,9.0,0.0,-100.00,NW,311,10.0,18.0,67,0.00,,,0.00,171.000000,,2013-12-05 22:42:00,
2013-12-05 22:52:00,9.0,0.0,-100.00,NW,311,10.0,18.0,67,0.00,,,0.00,171.000000,,2013-12-05 22:52:00,
2013-12-05 23:02:00,9.0,0.0,-100.00,NW,311,10.0,18.0,67,0.00,,,0.00,171.000000,,2013-12-05 23:02:00,
2013-12-05 23:11:00,5.0,-1.0,-100.00,NW,314,6.0,15.0,76,0.00,,,0.00,41.000000,,2013-12-05 23:11:00,
2013-12-05 23:43:00,5.0,-1.0,-100.00,NW,314,6.0,15.0,76,0.00,,,0.00,41.000000,,2013-12-05 23:43:00,
2013-12-05 23:53:00,5.0,-1.0,-100.00,NW,314,6.0,15.0,76,0.00,,,0.00,41.000000,,2013-12-05 23:53:00,